sensor_id;sensor_type;location;lat;lon;timestamp;pressure;altitude;pressure_sealevel;temperature;humidity
43553;BME280;29153;42.696;23.218;2023-04-24T00:02:02;94204.70;;;8.69;93.75
43553;BME280;29153;42.696;23.218;2023-04-24T00:04:30;94194.20;;;8.59;94.00
43553;BME280;29153;42.696;23.218;2023-04-24T00:06:58;94194.20;;;8.59;94.00
43553;BME280;29153;42.696;23.218;2023-04-24T00:09:26;94198.98;;;8.47;95.02
43553;BME280;29153;42.696;23.218;2023-04-24T00:11:53;94202.41;;;8.35;95.56
43553;BME280;29153;42.696;23.218;2023-04-24T00:14:21;94195.55;;;8.39;95.30
43553;BME280;29153;42.696;23.218;2023-04-24T00:16:48;94194.27;;;8.34;95.32
43553;BME280;29153;42.696;23.218;2023-04-24T00:19:16;94201.36;;;8.23;95.63
43553;BME280;29153;42.696;23.218;2023-04-24T00:21:43;94202.69;;;8.15;95.97
43553;BME280;29153;42.696;23.218;2023-04-24T00:24:10;94199.52;;;8.13;96.24
43553;BME280;29153;42.696;23.218;2023-04-24T00:26:38;94213.52;;;7.99;96.63
43553;BME280;29153;42.696;23.218;2023-04-24T00:29:05;94197.67;;;8.09;96.85
43553;BME280;29153;42.696;23.218;2023-04-24T00:31:33;94201.63;;;8.14;96.07
43553;BME280;29153;42.696;23.218;2023-04-24T00:34:03;94200.58;;;8.30;95.67
43553;BME280;29153;42.696;23.218;2023-04-24T00:36:31;94200.86;;;8.08;95.88
43553;BME280;29153;42.696;23.218;2023-04-24T00:38:59;94192.92;;;8.13;96.59
43553;BME280;29153;42.696;23.218;2023-04-24T00:41:27;94202.18;;;8.03;97.40
43553;BME280;29153;42.696;23.218;2023-04-24T00:43:54;94182.65;;;8.17;97.37
43553;BME280;29153;42.696;23.218;2023-04-24T00:46:22;94197.92;;;8.17;97.20
43553;BME280;29153;42.696;23.218;2023-04-24T00:48:51;94186.34;;;8.16;96.89
43553;BME280;29153;42.696;23.218;2023-04-24T00:51:19;94193.98;;;8.25;96.23
43553;BME280;29153;42.696;23.218;2023-04-24T00:53:47;94186.05;;;8.35;96.79
43553;BME280;29153;42.696;23.218;2023-04-24T00:56:14;94186.31;;;8.41;96.94
43553;BME280;29153;42.696;23.218;2023-04-24T00:58:42;94190.53;;;8.40;99.08
43553;BME280;29153;42.696;23.218;2023-04-24T01:01:10;94178.67;;;8.42;99.69
43553;BME280;29153;42.696;23.218;2023-04-24T01:03:38;94169.68;;;8.46;100.00
43553;BME280;29153;42.696;23.218;2023-04-24T01:06:06;94169.94;;;8.44;100.00
43553;BME280;29153;42.696;23.218;2023-04-24T01:08:35;94164.95;;;8.43;100.00
43553;BME280;29153;42.696;23.218;2023-04-24T01:11:04;94166.80;;;8.32;100.00
43553;BME280;29153;42.696;23.218;2023-04-24T01:13:32;94155.72;;;8.38;100.00
43553;BME280;29153;42.696;23.218;2023-04-24T01:16:00;94150.16;;;8.42;100.00
43553;BME280;29153;42.696;23.218;2023-04-24T01:18:28;94151.48;;;8.42;100.00
43553;BME280;29153;42.696;23.218;2023-04-24T01:20:59;94158.58;;;8.49;100.00
43553;BME280;29153;42.696;23.218;2023-04-24T01:23:28;94149.82;;;8.61;100.00
43553;BME280;29153;42.696;23.218;2023-04-24T01:25:56;94140.55;;;8.71;95.28
43553;BME280;29153;42.696;23.218;2023-04-24T01:28:23;94147.35;;;8.82;93.41
43553;BME280;29153;42.696;23.218;2023-04-24T01:30:51;94139.42;;;8.90;95.11
43553;BME280;29153;42.696;23.218;2023-04-24T01:33:21;94128.23;;;9.03;94.94
43553;BME280;29153;42.696;23.218;2023-04-24T01:35:49;94122.92;;;9.10;91.68
43553;BME280;29153;42.696;23.218;2023-04-24T01:38:17;94129.71;;;9.22;93.75
43553;BME280;29153;42.696;23.218;2023-04-24T01:40:44;94144.61;;;9.05;92.98
43553;BME280;29153;42.696;23.218;2023-04-24T01:43:12;94143.86;;;8.97;93.83
43553;BME280;29153;42.696;23.218;2023-04-24T01:45:40;94154.12;;;9.03;90.55
43553;BME280;29153;42.696;23.218;2023-04-24T01:48:07;94159.97;;;8.95;90.89
43553;BME280;29153;42.696;23.218;2023-04-24T01:50:35;94153.72;;;8.81;92.29
43553;BME280;29153;42.696;23.218;2023-04-24T01:53:03;94145.23;;;8.89;92.28
43553;BME280;29153;42.696;23.218;2023-04-24T01:55:31;94157.98;;;8.72;92.99
43553;BME280;29153;42.696;23.218;2023-04-24T01:58:00;94155.94;;;8.49;94.15
43553;BME280;29153;42.696;23.218;2023-04-24T02:00:28;94150.14;;;8.44;94.85
43553;BME280;29153;42.696;23.218;2023-04-24T02:02:56;94157.05;;;8.33;94.94
43553;BME280;29153;42.696;23.218;2023-04-24T02:05:23;94155.20;;;8.20;95.71
43553;BME280;29153;42.696;23.218;2023-04-24T02:07:51;94153.66;;;8.04;96.88
43553;BME280;29153;42.696;23.218;2023-04-24T02:10:18;94164.98;;;8.07;97.20
43553;BME280;29153;42.696;23.218;2023-04-24T02:12:46;94156.80;;;8.01;97.63
43553;BME280;29153;42.696;23.218;2023-04-24T02:15:13;94161.80;;;8.00;97.71
43553;BME280;29153;42.696;23.218;2023-04-24T02:17:41;94158.93;;;7.89;97.59
43553;BME280;29153;42.696;23.218;2023-04-24T02:20:08;94155.23;;;7.75;97.87
43553;BME280;29153;42.696;23.218;2023-04-24T02:22:36;94150.50;;;7.77;97.69
43553;BME280;29153;42.696;23.218;2023-04-24T02:25:03;94153.14;;;7.64;97.47
43553;BME280;29153;42.696;23.218;2023-04-24T02:27:31;94146.55;;;7.31;98.64
43553;BME280;29153;42.696;23.218;2023-04-24T02:29:59;94141.53;;;7.22;99.33
43553;BME280;29153;42.696;23.218;2023-04-24T02:32:27;94143.88;;;7.16;99.67
43553;BME280;29153;42.696;23.218;2023-04-24T02:34:54;94132.53;;;7.01;100.00
43553;BME280;29153;42.696;23.218;2023-04-24T02:37:21;94132.27;;;6.97;100.00
43553;BME280;29153;42.696;23.218;2023-04-24T02:39:49;94123.06;;;7.05;100.00
43553;BME280;29153;42.696;23.218;2023-04-24T02:42:16;94121.45;;;6.99;99.20
43553;BME280;29153;42.696;23.218;2023-04-24T02:44:44;94121.12;;;6.72;100.00
43553;BME280;29153;42.696;23.218;2023-04-24T02:47:11;94122.45;;;6.67;100.00
43553;BME280;29153;42.696;23.218;2023-04-24T02:49:39;94121.32;;;6.46;100.00
43553;BME280;29153;42.696;23.218;2023-04-24T02:52:06;94113.94;;;6.48;100.00
43553;BME280;29153;42.696;23.218;2023-04-24T02:54:34;94121.56;;;6.44;100.00
43553;BME280;29153;42.696;23.218;2023-04-24T02:57:01;94119.19;;;6.40;100.00
43553;BME280;29153;42.696;23.218;2023-04-24T02:59:29;94124.20;;;6.42;100.00
43553;BME280;29153;42.696;23.218;2023-04-24T03:01:56;94133.81;;;6.18;100.00
43553;BME280;29153;42.696;23.218;2023-04-24T03:04:24;94124.05;;;6.14;100.00
43553;BME280;29153;42.696;23.218;2023-04-24T03:06:52;94123.75;;;6.08;100.00
43553;BME280;29153;42.696;23.218;2023-04-24T03:09:21;94130.00;;;5.94;100.00
43553;BME280;29153;42.696;23.218;2023-04-24T03:11:49;94126.61;;;5.99;100.00
43553;BME280;29153;42.696;23.218;2023-04-24T03:14:17;94121.91;;;6.03;100.00
43553;BME280;29153;42.696;23.218;2023-04-24T03:16:44;94133.94;;;5.94;100.00
43553;BME280;29153;42.696;23.218;2023-04-24T03:19:12;94140.52;;;5.97;100.00
43553;BME280;29153;42.696;23.218;2023-04-24T03:21:39;94129.52;;;6.02;100.00
43553;BME280;29153;42.696;23.218;2023-04-24T03:24:09;94128.41;;;5.93;100.00
43553;BME280;29153;42.696;23.218;2023-04-24T03:26:37;94141.52;;;5.90;100.00
43553;BME280;29153;42.696;23.218;2023-04-24T03:29:04;94134.19;;;5.95;100.00
43553;BME280;29153;42.696;23.218;2023-04-24T03:31:32;94124.71;;;5.91;100.00
43553;BME280;29153;42.696;23.218;2023-04-24T03:33:59;94137.38;;;6.00;100.00
43553;BME280;29153;42.696;23.218;2023-04-24T03:36:27;94126.41;;;6.13;100.00
43553;BME280;29153;42.696;23.218;2023-04-24T03:38:54;94125.64;;;6.17;100.00
43553;BME280;29153;42.696;23.218;2023-04-24T03:41:22;94137.72;;;6.13;100.00
43553;BME280;29153;42.696;23.218;2023-04-24T03:43:49;94119.86;;;6.15;100.00
43553;BME280;29153;42.696;23.218;2023-04-24T03:46:16;94127.27;;;6.23;100.00
43553;BME280;29153;42.696;23.218;2023-04-24T03:48:44;94131.27;;;6.36;100.00
43553;BME280;29153;42.696;23.218;2023-04-24T03:51:11;94122.36;;;6.47;100.00
43553;BME280;29153;42.696;23.218;2023-04-24T03:53:39;94138.96;;;6.55;100.00
43553;BME280;29153;42.696;23.218;2023-04-24T03:56:06;94130.82;;;6.57;100.00
43553;BME280;29153;42.696;23.218;2023-04-24T03:58:34;94121.36;;;6.63;100.00
43553;BME280;29153;42.696;23.218;2023-04-24T04:01:01;94133.74;;;6.68;100.00
43553;BME280;29153;42.696;23.218;2023-04-24T04:03:29;94126.16;;;6.81;100.00
43553;BME280;29153;42.696;23.218;2023-04-24T04:05:56;94126.19;;;6.92;100.00
43553;BME280;29153;42.696;23.218;2023-04-24T04:08:24;94124.36;;;7.00;100.00
43553;BME280;29153;42.696;23.218;2023-04-24T04:10:51;94121.48;;;7.09;100.00
43553;BME280;29153;42.696;23.218;2023-04-24T04:13:19;94133.59;;;7.07;100.00
43553;BME280;29153;42.696;23.218;2023-04-24T04:15:46;94119.92;;;7.18;100.00
43553;BME280;29153;42.696;23.218;2023-04-24T04:18:14;94126.77;;;7.29;100.00
43553;BME280;29153;42.696;23.218;2023-04-24T04:20:41;94126.77;;;7.37;100.00
43553;BME280;29153;42.696;23.218;2023-04-24T04:23:09;94129.94;;;7.46;100.00
43553;BME280;29153;42.696;23.218;2023-04-24T04:25:36;94131.53;;;7.60;100.00
43553;BME280;29153;42.696;23.218;2023-04-24T04:28:04;94107.55;;;7.33;100.00
43553;BME280;29153;42.696;23.218;2023-04-24T04:30:31;94133.10;;;7.81;100.00
43553;BME280;29153;42.696;23.218;2023-04-24T04:32:59;94141.79;;;7.89;100.00
43553;BME280;29153;42.696;23.218;2023-04-24T04:35:27;94146.02;;;7.95;100.00
43553;BME280;29153;42.696;23.218;2023-04-24T04:37:55;94151.28;;;7.90;100.00
43553;BME280;29153;42.696;23.218;2023-04-24T04:40:24;94151.52;;;8.06;100.00
43553;BME280;29153;42.696;23.218;2023-04-24T04:42:52;94147.55;;;8.19;100.00
43553;BME280;29153;42.696;23.218;2023-04-24T04:45:19;94153.61;;;8.32;100.00
43553;BME280;29153;42.696;23.218;2023-04-24T04:47:47;94156.47;;;8.43;100.00
43553;BME280;29153;42.696;23.218;2023-04-24T04:50:15;94161.50;;;8.40;100.00
43553;BME280;29153;42.696;23.218;2023-04-24T04:52:44;94167.31;;;8.47;99.76
43553;BME280;29153;42.696;23.218;2023-04-24T04:55:12;94163.04;;;8.58;99.11
43553;BME280;29153;42.696;23.218;2023-04-24T04:57:39;94158.75;;;8.75;98.72
43553;BME280;29153;42.696;23.218;2023-04-24T05:00:08;94164.53;;;8.85;97.23
43553;BME280;29153;42.696;23.218;2023-04-24T05:02:36;94162.59;;;9.00;96.45
43553;BME280;29153;42.696;23.218;2023-04-24T05:05:04;94162.59;;;9.00;96.45
43553;BME280;29153;42.696;23.218;2023-04-24T05:07:32;94166.27;;;9.04;96.16
43553;BME280;29153;42.696;23.218;2023-04-24T05:10:00;94155.66;;;9.14;96.24
43553;BME280;29153;42.696;23.218;2023-04-24T05:12:27;94166.73;;;9.17;93.26
43553;BME280;29153;42.696;23.218;2023-04-24T05:14:54;94155.29;;;9.29;93.52
43553;BME280;29153;42.696;23.218;2023-04-24T05:17:22;94161.88;;;9.34;94.55
43553;BME280;29153;42.696;23.218;2023-04-24T05:19:49;94155.21;;;9.44;95.03
43553;BME280;29153;42.696;23.218;2023-04-24T05:22:17;94160.17;;;9.50;94.05
43553;BME280;29153;42.696;23.218;2023-04-24T05:24:47;94160.41;;;9.56;94.12
43553;BME280;29153;42.696;23.218;2023-04-24T05:27:14;94152.24;;;9.84;92.71
43553;BME280;29153;42.696;23.218;2023-04-24T05:29:42;94162.52;;;9.91;89.25
43553;BME280;29153;42.696;23.218;2023-04-24T05:32:10;94164.27;;;10.03;89.15
43553;BME280;29153;42.696;23.218;2023-04-24T05:34:37;94165.59;;;10.03;86.91
43553;BME280;29153;42.696;23.218;2023-04-24T05:37:05;94162.28;;;10.19;81.84
43553;BME280;29153;42.696;23.218;2023-04-24T05:39:34;94162.28;;;10.19;81.84
43553;BME280;29153;42.696;23.218;2023-04-24T05:42:04;94170.77;;;10.44;81.69
43553;BME280;29153;42.696;23.218;2023-04-24T05:44:32;94178.03;;;10.60;82.79
43553;BME280;29153;42.696;23.218;2023-04-24T05:46:59;94172.88;;;10.92;78.26
43553;BME280;29153;42.696;23.218;2023-04-24T05:49:27;94180.20;;;11.01;76.27
43553;BME280;29153;42.696;23.218;2023-04-24T05:51:54;94169.17;;;11.15;76.37
43553;BME280;29153;42.696;23.218;2023-04-24T05:54:22;94177.84;;;11.39;76.00
43553;BME280;29153;42.696;23.218;2023-04-24T05:56:50;94157.91;;;11.60;74.26
43553;BME280;29153;42.696;23.218;2023-04-24T05:59:17;94172.89;;;11.70;73.19
43553;BME280;29153;42.696;23.218;2023-04-24T06:01:45;94185.78;;;11.98;70.48
43553;BME280;29153;42.696;23.218;2023-04-24T06:04:13;94177.34;;;12.25;69.87
43553;BME280;29153;42.696;23.218;2023-04-24T06:06:40;94181.58;;;12.56;67.95
43553;BME280;29153;42.696;23.218;2023-04-24T06:09:08;94181.58;;;12.56;67.95
43553;BME280;29153;42.696;23.218;2023-04-24T06:11:35;94185.09;;;12.82;66.88
43553;BME280;29153;42.696;23.218;2023-04-24T06:14:03;94176.68;;;12.91;66.70
43553;BME280;29153;42.696;23.218;2023-04-24T06:16:30;94175.35;;;12.91;66.10
43553;BME280;29153;42.696;23.218;2023-04-24T06:18:58;94184.69;;;13.02;66.09
43553;BME280;29153;42.696;23.218;2023-04-24T06:21:25;94177.78;;;13.17;67.58
43553;BME280;29153;42.696;23.218;2023-04-24T06:23:54;94175.69;;;13.28;66.12
43553;BME280;29153;42.696;23.218;2023-04-24T06:26:22;94179.66;;;13.52;66.63
43553;BME280;29153;42.696;23.218;2023-04-24T06:28:51;94190.72;;;13.35;65.69
43553;BME280;29153;42.696;23.218;2023-04-24T06:31:21;94189.59;;;13.49;65.95
43553;BME280;29153;42.696;23.218;2023-04-24T06:33:49;94189.56;;;13.63;66.75
43553;BME280;29153;42.696;23.218;2023-04-24T06:36:16;94189.52;;;13.27;67.47
43553;BME280;29153;42.696;23.218;2023-04-24T06:38:44;94183.13;;;13.28;65.48
43553;BME280;29153;42.696;23.218;2023-04-24T06:41:11;94182.48;;;13.69;67.05
43553;BME280;29153;42.696;23.218;2023-04-24T06:43:39;94176.11;;;13.57;69.11
43553;BME280;29153;42.696;23.218;2023-04-24T06:46:06;94188.62;;;13.81;63.77
43553;BME280;29153;42.696;23.218;2023-04-24T06:48:34;94185.30;;;14.20;63.50
43553;BME280;29153;42.696;23.218;2023-04-24T06:51:01;94179.95;;;14.31;61.58
43553;BME280;29153;42.696;23.218;2023-04-24T06:53:29;94184.75;;;14.43;63.69
43553;BME280;29153;42.696;23.218;2023-04-24T06:55:57;94186.75;;;14.79;63.72
43553;BME280;29153;42.696;23.218;2023-04-24T06:58:25;94189.66;;;14.80;60.26
43553;BME280;29153;42.696;23.218;2023-04-24T07:00:52;94187.08;;;14.86;59.70
43553;BME280;29153;42.696;23.218;2023-04-24T07:03:20;94186.45;;;14.50;59.97
43553;BME280;29153;42.696;23.218;2023-04-24T07:05:48;94172.92;;;14.77;62.57
43553;BME280;29153;42.696;23.218;2023-04-24T07:08:16;94176.36;;;14.89;59.17
43553;BME280;29153;42.696;23.218;2023-04-24T07:10:44;94173.48;;;14.96;58.56
43553;BME280;29153;42.696;23.218;2023-04-24T07:13:11;94172.30;;;15.28;59.41
43553;BME280;29153;42.696;23.218;2023-04-24T07:15:39;94175.20;;;15.58;59.04
43553;BME280;29153;42.696;23.218;2023-04-24T07:18:07;94168.56;;;15.38;59.71
43553;BME280;29153;42.696;23.218;2023-04-24T07:20:34;94172.14;;;15.70;58.15
43553;BME280;29153;42.696;23.218;2023-04-24T07:23:02;94167.59;;;16.05;58.97
43553;BME280;29153;42.696;23.218;2023-04-24T07:25:29;94172.48;;;16.03;55.51
43553;BME280;29153;42.696;23.218;2023-04-24T07:27:58;94170.03;;;16.21;57.09
43553;BME280;29153;42.696;23.218;2023-04-24T07:30:25;94166.11;;;16.51;53.95
43553;BME280;29153;42.696;23.218;2023-04-24T07:32:54;94158.77;;;16.71;54.20
43553;BME280;29153;42.696;23.218;2023-04-24T07:35:22;94170.80;;;16.71;52.86
43553;BME280;29153;42.696;23.218;2023-04-24T07:37:52;94151.53;;;16.71;53.44
43553;BME280;29153;42.696;23.218;2023-04-24T07:40:21;94154.99;;;16.72;53.15
43553;BME280;29153;42.696;23.218;2023-04-24T07:42:49;94150.63;;;16.97;52.69
43553;BME280;29153;42.696;23.218;2023-04-24T07:45:17;94150.59;;;17.35;56.11
43553;BME280;29153;42.696;23.218;2023-04-24T07:47:44;94153.13;;;17.81;53.68
43553;BME280;29153;42.696;23.218;2023-04-24T07:50:12;94145.94;;;18.20;53.81
43553;BME280;29153;42.696;23.218;2023-04-24T07:52:39;94147.78;;;18.35;50.83
43553;BME280;29153;42.696;23.218;2023-04-24T07:55:07;94141.19;;;18.77;53.35
43553;BME280;29153;42.696;23.218;2023-04-24T07:57:34;94143.84;;;18.59;48.88
43553;BME280;29153;42.696;23.218;2023-04-24T08:02:29;94127.42;;;19.21;50.44
43553;BME280;29153;42.696;23.218;2023-04-24T08:04:57;94137.95;;;19.63;46.79
43553;BME280;29153;42.696;23.218;2023-04-24T08:07:24;94130.03;;;19.12;46.17
43553;BME280;29153;42.696;23.218;2023-04-24T08:09:52;94129.34;;;19.08;46.67
43553;BME280;29153;42.696;23.218;2023-04-24T08:12:19;94123.73;;;18.83;47.81
43553;BME280;29153;42.696;23.218;2023-04-24T08:14:47;94125.10;;;19.20;48.93
43553;BME280;29153;42.696;23.218;2023-04-24T08:17:14;94124.73;;;19.39;47.58
43553;BME280;29153;42.696;23.218;2023-04-24T08:19:43;94123.07;;;19.59;45.88
43553;BME280;29153;42.696;23.218;2023-04-24T08:22:12;94124.75;;;19.97;47.66
43553;BME280;29153;42.696;23.218;2023-04-24T08:24:40;94122.65;;;20.19;50.13
43553;BME280;29153;42.696;23.218;2023-04-24T08:27:07;94117.64;;;20.39;44.77
43553;BME280;29153;42.696;23.218;2023-04-24T08:29:36;94122.80;;;20.38;43.59
43553;BME280;29153;42.696;23.218;2023-04-24T08:32:02;94118.08;;;20.07;45.39
43553;BME280;29153;42.696;23.218;2023-04-24T08:34:30;94118.09;;;20.29;44.44
43553;BME280;29153;42.696;23.218;2023-04-24T08:36:57;94107.13;;;20.34;47.72
43553;BME280;29153;42.696;23.218;2023-04-24T08:39:25;94097.88;;;19.91;47.17
43553;BME280;29153;42.696;23.218;2023-04-24T08:41:55;94086.19;;;20.27;49.07
43553;BME280;29153;42.696;23.218;2023-04-24T08:44:22;94091.98;;;20.57;45.28
43553;BME280;29153;42.696;23.218;2023-04-24T08:46:49;94085.78;;;20.41;43.79
43553;BME280;29153;42.696;23.218;2023-04-24T08:49:18;94076.70;;;20.18;47.57
43553;BME280;29153;42.696;23.218;2023-04-24T08:51:46;94084.03;;;20.33;47.16
43553;BME280;29153;42.696;23.218;2023-04-24T08:54:14;94071.73;;;20.48;45.12
43553;BME280;29153;42.696;23.218;2023-04-24T08:56:43;94074.56;;;20.45;44.73
43553;BME280;29153;42.696;23.218;2023-04-24T08:59:11;94075.97;;;20.70;44.05
43553;BME280;29153;42.696;23.218;2023-04-24T09:01:40;94073.16;;;20.35;43.27
43553;BME280;29153;42.696;23.218;2023-04-24T09:04:09;94061.66;;;20.23;46.87
43553;BME280;29153;42.696;23.218;2023-04-24T09:06:39;94036.84;;;19.86;45.71
43553;BME280;29153;42.696;23.218;2023-04-24T09:09:07;94056.31;;;19.61;45.26
43553;BME280;29153;42.696;23.218;2023-04-24T09:11:35;94049.42;;;19.42;46.29
43553;BME280;29153;42.696;23.218;2023-04-24T09:14:04;94050.48;;;19.65;45.03
43553;BME280;29153;42.696;23.218;2023-04-24T09:16:32;94050.89;;;19.79;46.15
43553;BME280;29153;42.696;23.218;2023-04-24T09:18:59;94042.02;;;19.85;48.72
43553;BME280;29153;42.696;23.218;2023-04-24T09:21:32;94045.84;;;20.06;45.64
43553;BME280;29153;42.696;23.218;2023-04-24T09:24:01;94045.21;;;20.18;44.07
43553;BME280;29153;42.696;23.218;2023-04-24T09:26:30;94034.41;;;20.46;47.89
43553;BME280;29153;42.696;23.218;2023-04-24T09:28:59;94027.54;;;20.33;45.82
43553;BME280;29153;42.696;23.218;2023-04-24T09:31:30;94030.62;;;20.41;45.74
43553;BME280;29153;42.696;23.218;2023-04-24T09:34:02;94037.45;;;20.01;43.96
43553;BME280;29153;42.696;23.218;2023-04-24T09:36:37;94025.20;;;20.10;49.09
43553;BME280;29153;42.696;23.218;2023-04-24T09:39:07;94031.09;;;20.15;45.66
43553;BME280;29153;42.696;23.218;2023-04-24T09:41:47;94037.69;;;19.46;43.70
43553;BME280;29153;42.696;23.218;2023-04-24T09:44:17;94031.60;;;19.83;45.72
43553;BME280;29153;42.696;23.218;2023-04-24T09:46:51;94026.42;;;20.34;47.60
43553;BME280;29153;42.696;23.218;2023-04-24T09:49:25;94016.75;;;20.70;44.50
43553;BME280;29153;42.696;23.218;2023-04-24T09:52:08;94018.77;;;20.67;42.54
43553;BME280;29153;42.696;23.218;2023-04-24T09:54:32;94016.92;;;20.30;45.94
43553;BME280;29153;42.696;23.218;2023-04-24T09:57:00;94021.56;;;20.18;49.45
43553;BME280;29153;42.696;23.218;2023-04-24T09:59:28;94027.42;;;20.14;42.93
43553;BME280;29153;42.696;23.218;2023-04-24T10:01:56;94012.63;;;20.14;41.45
43553;BME280;29153;42.696;23.218;2023-04-24T10:04:26;93999.01;;;20.44;46.99
43553;BME280;29153;42.696;23.218;2023-04-24T10:06:56;93995.53;;;20.43;43.03
43553;BME280;29153;42.696;23.218;2023-04-24T10:09:26;93993.16;;;20.26;43.61
43553;BME280;29153;42.696;23.218;2023-04-24T10:11:54;93981.25;;;20.12;46.42
43553;BME280;29153;42.696;23.218;2023-04-24T10:31:54;93950.39;;;20.78;47.15
43553;BME280;29153;42.696;23.218;2023-04-24T10:34:22;93951.17;;;20.78;43.92
43553;BME280;29153;42.696;23.218;2023-04-24T10:36:55;93947.14;;;20.63;43.93
43553;BME280;29153;42.696;23.218;2023-04-24T10:39:23;93948.97;;;20.74;41.82
43553;BME280;29153;42.696;23.218;2023-04-24T10:41:51;93939.47;;;20.80;43.01
43553;BME280;29153;42.696;23.218;2023-04-24T10:44:19;93946.20;;;20.80;42.06
43553;BME280;29153;42.696;23.218;2023-04-24T10:46:52;93946.77;;;20.80;41.71
43553;BME280;29153;42.696;23.218;2023-04-24T10:49:27;93947.01;;;20.90;44.84
43553;BME280;29153;42.696;23.218;2023-04-24T10:51:50;93939.16;;;21.11;44.18
43553;BME280;29153;42.696;23.218;2023-04-24T10:54:42;93940.99;;;20.87;43.02
43553;BME280;29153;42.696;23.218;2023-04-24T11:00:09;93941.33;;;21.21;42.04
43553;BME280;29153;42.696;23.218;2023-04-24T11:02:35;93939.77;;;21.20;42.50
43553;BME280;29153;42.696;23.218;2023-04-24T11:04:52;93946.86;;;20.83;41.13
43553;BME280;29153;42.696;23.218;2023-04-24T11:07:21;93953.42;;;20.51;42.89
43553;BME280;29153;42.696;23.218;2023-04-24T11:09:55;93951.08;;;20.18;43.96
43553;BME280;29153;42.696;23.218;2023-04-24T11:12:19;93972.17;;;19.94;44.86
43553;BME280;29153;42.696;23.218;2023-04-24T11:17:33;94014.52;;;17.96;69.08
43553;BME280;29153;42.696;23.218;2023-04-24T11:20:08;93981.55;;;17.57;75.70
43553;BME280;29153;42.696;23.218;2023-04-24T11:22:39;93967.34;;;17.44;79.65
43553;BME280;29153;42.696;23.218;2023-04-24T11:25:07;93957.27;;;17.62;81.37
43553;BME280;29153;42.696;23.218;2023-04-24T11:27:42;93951.98;;;17.92;81.91
43553;BME280;29153;42.696;23.218;2023-04-24T11:30:11;93959.24;;;18.10;76.05
43553;BME280;29153;42.696;23.218;2023-04-24T11:32:40;93951.00;;;18.09;78.60
43553;BME280;29153;42.696;23.218;2023-04-24T11:35:19;93947.92;;;17.74;76.16
43553;BME280;29153;42.696;23.218;2023-04-24T11:37:53;93929.75;;;17.80;80.94
43553;BME280;29153;42.696;23.218;2023-04-24T11:40:22;93922.06;;;18.08;81.65
43553;BME280;29153;42.696;23.218;2023-04-24T11:42:51;93921.41;;;18.17;82.89
43553;BME280;29153;42.696;23.218;2023-04-24T11:45:23;93934.77;;;17.75;75.36
43553;BME280;29153;42.696;23.218;2023-04-24T11:47:52;93919.34;;;17.84;77.81
43553;BME280;29153;42.696;23.218;2023-04-24T11:50:20;93928.20;;;18.03;77.00
43553;BME280;29153;42.696;23.218;2023-04-24T11:52:49;93923.61;;;17.97;76.51
43553;BME280;29153;42.696;23.218;2023-04-24T11:57:49;93917.93;;;18.29;71.60
43553;BME280;29153;42.696;23.218;2023-04-24T12:00:28;93918.49;;;18.35;70.87
43553;BME280;29153;42.696;23.218;2023-04-24T12:03:04;93914.92;;;18.31;71.26
43553;BME280;29153;42.696;23.218;2023-04-24T12:05:32;93916.27;;;18.12;66.58
43553;BME280;29153;42.696;23.218;2023-04-24T12:07:59;93914.45;;;17.98;67.20
43553;BME280;29153;42.696;23.218;2023-04-24T12:10:28;93919.82;;;18.10;68.56
43553;BME280;29153;42.696;23.218;2023-04-24T12:12:57;93911.78;;;18.29;71.81
43553;BME280;29153;42.696;23.218;2023-04-24T12:15:26;93913.13;;;18.53;71.99
43553;BME280;29153;42.696;23.218;2023-04-24T12:17:56;93904.06;;;18.63;72.72
43553;BME280;29153;42.696;23.218;2023-04-24T12:20:31;93897.69;;;18.68;72.17
43553;BME280;29153;42.696;23.218;2023-04-24T12:23:00;93894.55;;;18.66;69.82
43553;BME280;29153;42.696;23.218;2023-04-24T12:25:31;93895.48;;;18.92;62.83
43553;BME280;29153;42.696;23.218;2023-04-24T12:30:46;93883.58;;;18.77;63.80
43553;BME280;29153;42.696;23.218;2023-04-24T12:33:18;93880.40;;;18.87;62.22
43553;BME280;29153;42.696;23.218;2023-04-24T12:35:47;93874.61;;;18.85;62.70
43553;BME280;29153;42.696;23.218;2023-04-24T12:38:16;93869.70;;;18.81;63.15
43553;BME280;29153;42.696;23.218;2023-04-24T12:40:44;93870.16;;;18.77;59.06
43553;BME280;29153;42.696;23.218;2023-04-24T12:43:19;93871.92;;;18.85;59.02
43553;BME280;29153;42.696;23.218;2023-04-24T12:45:48;93868.03;;;19.04;60.64
43553;BME280;29153;42.696;23.218;2023-04-24T12:48:15;93870.56;;;19.41;54.98
43553;BME280;29153;42.696;23.218;2023-04-24T12:50:44;93856.11;;;19.67;56.89
43553;BME280;29153;42.696;23.218;2023-04-24T12:53:11;93857.91;;;19.41;56.61
43553;BME280;29153;42.696;23.218;2023-04-24T12:55:39;93835.25;;;19.54;58.31
43553;BME280;29153;42.696;23.218;2023-04-24T12:58:06;93818.20;;;19.35;56.21
43553;BME280;29153;42.696;23.218;2023-04-24T13:00:35;93829.88;;;19.70;58.25
43553;BME280;29153;42.696;23.218;2023-04-24T13:03:02;93829.20;;;19.51;54.85
43553;BME280;29153;42.696;23.218;2023-04-24T13:05:29;93821.08;;;19.79;56.01
43553;BME280;29153;42.696;23.218;2023-04-24T13:07:57;93822.06;;;19.96;55.89
43553;BME280;29153;42.696;23.218;2023-04-24T13:10:24;93810.26;;;20.01;54.66
43553;BME280;29153;42.696;23.218;2023-04-24T13:12:52;93812.50;;;20.15;48.79
43553;BME280;29153;42.696;23.218;2023-04-24T13:15:19;93803.38;;;20.29;52.38
43553;BME280;29153;42.696;23.218;2023-04-24T13:17:47;93804.87;;;20.26;52.39
43553;BME280;29153;42.696;23.218;2023-04-24T13:20:14;93800.59;;;20.16;50.78
43553;BME280;29153;42.696;23.218;2023-04-24T13:22:42;93783.41;;;20.36;54.00
43553;BME280;29153;42.696;23.218;2023-04-24T13:25:09;93786.81;;;20.52;53.14
43553;BME280;29153;42.696;23.218;2023-04-24T13:27:38;93789.52;;;20.62;48.18
43553;BME280;29153;42.696;23.218;2023-04-24T13:30:06;93786.23;;;20.81;50.69